sensor_id;sensor_type;location;lat;lon;timestamp;P1;durP1;ratioP1;P2;durP2;ratioP2
75512;SDS011;64090;49.770;18.760;2023-08-17T00:00:29;9.70;;;7.30;;
75512;SDS011;64090;49.770;18.760;2023-08-17T00:04:10;8.20;;;7.00;;
75512;SDS011;64090;49.770;18.760;2023-08-17T00:07:31;9.90;;;7.60;;
75512;SDS011;64090;49.770;18.760;2023-08-17T00:10:51;9.20;;;8.10;;
75512;SDS011;64090;49.770;18.760;2023-08-17T00:13:56;9.40;;;7.40;;
75512;SDS011;64090;49.770;18.760;2023-08-17T00:17:21;10.90;;;8.20;;
75512;SDS011;64090;49.770;18.760;2023-08-17T00:20:44;10.00;;;8.40;;
75512;SDS011;64090;49.770;18.760;2023-08-17T00:24:08;11.80;;;8.90;;
75512;SDS011;64090;49.770;18.760;2023-08-17T00:27:52;9.70;;;8.70;;
75512;SDS011;64090;49.770;18.760;2023-08-17T00:31:14;11.90;;;9.90;;
75512;SDS011;64090;49.770;18.760;2023-08-17T00:34:33;18.20;;;13.00;;
75512;SDS011;64090;49.770;18.760;2023-08-17T00:37:46;13.30;;;10.90;;
75512;SDS011;64090;49.770;18.760;2023-08-17T00:41:09;13.10;;;10.40;;
75512;SDS011;64090;49.770;18.760;2023-08-17T00:44:34;13.70;;;10.10;;
75512;SDS011;64090;49.770;18.760;2023-08-17T00:47:57;10.70;;;8.60;;
75512;SDS011;64090;49.770;18.760;2023-08-17T00:51:10;11.40;;;8.80;;
75512;SDS011;64090;49.770;18.760;2023-08-17T00:54:34;13.00;;;10.60;;
75512;SDS011;64090;49.770;18.760;2023-08-17T00:57:56;10.50;;;8.20;;
75512;SDS011;64090;49.770;18.760;2023-08-17T01:01:19;9.70;;;8.40;;
75512;SDS011;64090;49.770;18.760;2023-08-17T01:04:36;11.30;;;9.70;;
75512;SDS011;64090;49.770;18.760;2023-08-17T01:08:04;12.50;;;9.90;;
75512;SDS011;64090;49.770;18.760;2023-08-17T01:11:37;10.60;;;8.70;;
75512;SDS011;64090;49.770;18.760;2023-08-17T01:15:09;12.40;;;10.20;;
75512;SDS011;64090;49.770;18.760;2023-08-17T01:18:44;11.90;;;9.90;;
75512;SDS011;64090;49.770;18.760;2023-08-17T01:22:14;10.60;;;9.40;;
75512;SDS011;64090;49.770;18.760;2023-08-17T01:25:39;11.10;;;8.60;;
75512;SDS011;64090;49.770;18.760;2023-08-17T01:29:00;10.50;;;8.70;;
75512;SDS011;64090;49.770;18.760;2023-08-17T01:32:30;11.90;;;9.90;;
75512;SDS011;64090;49.770;18.760;2023-08-17T01:36:01;11.60;;;9.00;;
75512;SDS011;64090;49.770;18.760;2023-08-17T01:39:39;8.60;;;7.70;;
75512;SDS011;64090;49.770;18.760;2023-08-17T01:43:05;10.00;;;8.20;;
75512;SDS011;64090;49.770;18.760;2023-08-17T01:46:27;10.60;;;9.60;;
75512;SDS011;64090;49.770;18.760;2023-08-17T01:49:42;9.40;;;8.40;;
75512;SDS011;64090;49.770;18.760;2023-08-17T01:53:04;10.70;;;9.20;;
75512;SDS011;64090;49.770;18.760;2023-08-17T01:56:22;9.20;;;8.30;;
75512;SDS011;64090;49.770;18.760;2023-08-17T01:59:53;11.10;;;9.80;;
75512;SDS011;64090;49.770;18.760;2023-08-17T02:03:16;9.70;;;8.40;;
75512;SDS011;64090;49.770;18.760;2023-08-17T02:06:41;10.90;;;9.80;;
75512;SDS011;64090;49.770;18.760;2023-08-17T02:10:03;11.80;;;9.80;;
75512;SDS011;64090;49.770;18.760;2023-08-17T02:13:18;9.70;;;8.00;;
75512;SDS011;64090;49.770;18.760;2023-08-17T02:16:40;10.40;;;8.60;;
75512;SDS011;64090;49.770;18.760;2023-08-17T02:20:10;10.40;;;9.00;;
75512;SDS011;64090;49.770;18.760;2023-08-17T02:23:31;10.90;;;9.10;;
75512;SDS011;64090;49.770;18.760;2023-08-17T02:26:50;11.40;;;9.20;;
75512;SDS011;64090;49.770;18.760;2023-08-17T02:30:09;10.00;;;8.60;;
75512;SDS011;64090;49.770;18.760;2023-08-17T02:33:36;9.40;;;8.40;;
75512;SDS011;64090;49.770;18.760;2023-08-17T02:37:03;10.30;;;8.80;;
75512;SDS011;64090;49.770;18.760;2023-08-17T02:40:25;8.50;;;7.30;;
75512;SDS011;64090;49.770;18.760;2023-08-17T02:47:08;9.30;;;8.10;;
75512;SDS011;64090;49.770;18.760;2023-08-17T02:50:31;11.50;;;8.90;;
75512;SDS011;64090;49.770;18.760;2023-08-17T02:54:06;13.40;;;8.60;;
75512;SDS011;64090;49.770;18.760;2023-08-17T02:57:28;11.40;;;9.50;;
75512;SDS011;64090;49.770;18.760;2023-08-17T03:00:53;12.10;;;10.10;;
75512;SDS011;64090;49.770;18.760;2023-08-17T03:04:19;11.70;;;9.40;;
75512;SDS011;64090;49.770;18.760;2023-08-17T03:07:44;11.90;;;9.70;;
75512;SDS011;64090;49.770;18.760;2023-08-17T03:11:15;13.50;;;9.90;;
75512;SDS011;64090;49.770;18.760;2023-08-17T03:14:55;12.00;;;9.80;;
75512;SDS011;64090;49.770;18.760;2023-08-17T03:18:24;11.70;;;9.00;;
75512;SDS011;64090;49.770;18.760;2023-08-17T03:21:52;10.70;;;9.30;;
75512;SDS011;64090;49.770;18.760;2023-08-17T03:25:16;10.60;;;9.40;;
75512;SDS011;64090;49.770;18.760;2023-08-17T03:28:34;11.20;;;9.90;;
75512;SDS011;64090;49.770;18.760;2023-08-17T03:31:44;12.00;;;9.40;;
75512;SDS011;64090;49.770;18.760;2023-08-17T03:35:18;11.60;;;10.40;;
75512;SDS011;64090;49.770;18.760;2023-08-17T03:42:05;11.80;;;9.30;;
75512;SDS011;64090;49.770;18.760;2023-08-17T03:45:33;14.60;;;10.80;;
75512;SDS011;64090;49.770;18.760;2023-08-17T03:48:57;14.70;;;10.30;;
75512;SDS011;64090;49.770;18.760;2023-08-17T03:52:19;12.40;;;10.70;;
75512;SDS011;64090;49.770;18.760;2023-08-17T03:55:47;12.00;;;10.20;;
75512;SDS011;64090;49.770;18.760;2023-08-17T03:58:54;11.10;;;10.00;;
75512;SDS011;64090;49.770;18.760;2023-08-17T04:02:27;11.50;;;9.60;;
75512;SDS011;64090;49.770;18.760;2023-08-17T04:06:05;10.20;;;8.40;;
75512;SDS011;64090;49.770;18.760;2023-08-17T04:09:30;13.30;;;10.10;;
75512;SDS011;64090;49.770;18.760;2023-08-17T04:12:52;9.90;;;8.70;;
75512;SDS011;64090;49.770;18.760;2023-08-17T04:16:10;10.30;;;8.20;;
75512;SDS011;64090;49.770;18.760;2023-08-17T04:19:48;11.40;;;9.50;;
75512;SDS011;64090;49.770;18.760;2023-08-17T04:23:10;9.70;;;8.20;;
75512;SDS011;64090;49.770;18.760;2023-08-17T04:26:31;11.50;;;10.30;;
75512;SDS011;64090;49.770;18.760;2023-08-17T04:29:53;11.40;;;9.90;;
75512;SDS011;64090;49.770;18.760;2023-08-17T04:33:19;12.20;;;9.10;;
75512;SDS011;64090;49.770;18.760;2023-08-17T04:36:57;10.70;;;9.50;;
75512;SDS011;64090;49.770;18.760;2023-08-17T04:40:17;11.80;;;9.50;;
75512;SDS011;64090;49.770;18.760;2023-08-17T04:43:38;11.90;;;9.60;;
75512;SDS011;64090;49.770;18.760;2023-08-17T04:47:01;10.50;;;9.00;;
75512;SDS011;64090;49.770;18.760;2023-08-17T04:50:20;11.70;;;8.30;;
75512;SDS011;64090;49.770;18.760;2023-08-17T04:53:42;10.70;;;9.20;;
75512;SDS011;64090;49.770;18.760;2023-08-17T04:57:03;10.60;;;9.20;;
75512;SDS011;64090;49.770;18.760;2023-08-17T05:00:19;10.80;;;9.60;;
75512;SDS011;64090;49.770;18.760;2023-08-17T05:03:37;10.40;;;9.40;;
75512;SDS011;64090;49.770;18.760;2023-08-17T05:06:58;10.80;;;9.60;;
75512;SDS011;64090;49.770;18.760;2023-08-17T05:10:20;10.50;;;9.40;;
75512;SDS011;64090;49.770;18.760;2023-08-17T05:13:37;11.20;;;10.00;;
75512;SDS011;64090;49.770;18.760;2023-08-17T05:16:49;11.70;;;10.50;;
75512;SDS011;64090;49.770;18.760;2023-08-17T05:20:14;10.80;;;9.80;;
75512;SDS011;64090;49.770;18.760;2023-08-17T05:23:41;10.50;;;9.30;;
75512;SDS011;64090;49.770;18.760;2023-08-17T05:27:02;11.30;;;9.30;;
75512;SDS011;64090;49.770;18.760;2023-08-17T05:30:32;10.00;;;9.00;;
75512;SDS011;64090;49.770;18.760;2023-08-17T05:34:12;11.30;;;8.30;;
75512;SDS011;64090;49.770;18.760;2023-08-17T05:37:29;9.00;;;8.10;;
75512;SDS011;64090;49.770;18.760;2023-08-17T05:40:54;8.50;;;7.60;;
75512;SDS011;64090;49.770;18.760;2023-08-17T05:44:09;9.40;;;8.50;;
75512;SDS011;64090;49.770;18.760;2023-08-17T05:47:28;9.00;;;8.10;;
75512;SDS011;64090;49.770;18.760;2023-08-17T05:50:49;12.50;;;9.90;;
75512;SDS011;64090;49.770;18.760;2023-08-17T05:54:07;11.20;;;9.70;;
75512;SDS011;64090;49.770;18.760;2023-08-17T05:57:31;11.50;;;10.10;;
75512;SDS011;64090;49.770;18.760;2023-08-17T06:00:52;11.00;;;8.80;;
75512;SDS011;64090;49.770;18.760;2023-08-17T06:04:11;11.40;;;10.20;;
75512;SDS011;64090;49.770;18.760;2023-08-17T06:07:28;15.20;;;10.50;;
75512;SDS011;64090;49.770;18.760;2023-08-17T06:10:53;12.60;;;10.00;;
75512;SDS011;64090;49.770;18.760;2023-08-17T06:14:18;12.50;;;10.10;;
75512;SDS011;64090;49.770;18.760;2023-08-17T06:17:36;13.10;;;9.40;;
75512;SDS011;64090;49.770;18.760;2023-08-17T06:20:57;13.20;;;10.70;;
75512;SDS011;64090;49.770;18.760;2023-08-17T06:24:14;10.60;;;9.10;;
75512;SDS011;64090;49.770;18.760;2023-08-17T06:27:36;12.60;;;10.60;;
75512;SDS011;64090;49.770;18.760;2023-08-17T06:30:58;14.80;;;10.60;;
75512;SDS011;64090;49.770;18.760;2023-08-17T06:34:20;12.80;;;10.30;;
75512;SDS011;64090;49.770;18.760;2023-08-17T06:41:13;12.10;;;10.50;;
75512;SDS011;64090;49.770;18.760;2023-08-17T06:44:35;12.90;;;9.90;;
75512;SDS011;64090;49.770;18.760;2023-08-17T06:47:57;13.60;;;10.10;;
75512;SDS011;64090;49.770;18.760;2023-08-17T06:51:20;10.80;;;9.10;;
75512;SDS011;64090;49.770;18.760;2023-08-17T06:54:37;12.00;;;10.80;;
75512;SDS011;64090;49.770;18.760;2023-08-17T06:58:01;11.10;;;9.70;;
75512;SDS011;64090;49.770;18.760;2023-08-17T07:01:10;11.30;;;8.50;;
75512;SDS011;64090;49.770;18.760;2023-08-17T07:04:26;12.00;;;9.10;;
75512;SDS011;64090;49.770;18.760;2023-08-17T07:07:51;10.70;;;8.50;;
75512;SDS011;64090;49.770;18.760;2023-08-17T07:11:15;10.30;;;9.00;;
75512;SDS011;64090;49.770;18.760;2023-08-17T07:14:37;10.30;;;8.30;;
75512;SDS011;64090;49.770;18.760;2023-08-17T07:17:50;9.50;;;8.30;;
75512;SDS011;64090;49.770;18.760;2023-08-17T07:21:08;8.70;;;7.80;;
75512;SDS011;64090;49.770;18.760;2023-08-17T07:24:27;9.50;;;8.50;;
75512;SDS011;64090;49.770;18.760;2023-08-17T07:27:49;10.70;;;8.40;;
75512;SDS011;64090;49.770;18.760;2023-08-17T07:31:13;9.50;;;8.50;;
75512;SDS011;64090;49.770;18.760;2023-08-17T07:34:30;12.10;;;8.70;;
75512;SDS011;64090;49.770;18.760;2023-08-17T07:37:48;9.20;;;7.70;;
75512;SDS011;64090;49.770;18.760;2023-08-17T07:41:13;9.40;;;6.80;;
75512;SDS011;64090;49.770;18.760;2023-08-17T07:44:32;8.90;;;7.70;;
75512;SDS011;64090;49.770;18.760;2023-08-17T07:47:51;9.70;;;8.30;;
75512;SDS011;64090;49.770;18.760;2023-08-17T07:51:00;8.70;;;6.80;;
75512;SDS011;64090;49.770;18.760;2023-08-17T07:54:17;14.00;;;9.70;;
75512;SDS011;64090;49.770;18.760;2023-08-17T07:57:35;12.90;;;9.60;;
75512;SDS011;64090;49.770;18.760;2023-08-17T08:00:52;12.90;;;9.40;;
75512;SDS011;64090;49.770;18.760;2023-08-17T08:04:04;13.40;;;10.80;;
75512;SDS011;64090;49.770;18.760;2023-08-17T08:07:24;12.40;;;9.40;;
75512;SDS011;64090;49.770;18.760;2023-08-17T08:10:54;14.30;;;9.70;;
75512;SDS011;64090;49.770;18.760;2023-08-17T08:14:06;10.80;;;8.60;;
75512;SDS011;64090;49.770;18.760;2023-08-17T08:17:17;10.00;;;7.80;;
75512;SDS011;64090;49.770;18.760;2023-08-17T08:20:39;13.30;;;8.40;;
75512;SDS011;64090;49.770;18.760;2023-08-17T08:24:18;10.00;;;8.80;;
75512;SDS011;64090;49.770;18.760;2023-08-17T08:27:40;11.80;;;8.80;;
75512;SDS011;64090;49.770;18.760;2023-08-17T08:31:02;10.50;;;8.10;;
75512;SDS011;64090;49.770;18.760;2023-08-17T08:34:26;10.30;;;9.10;;
75512;SDS011;64090;49.770;18.760;2023-08-17T08:37:45;8.80;;;7.90;;
75512;SDS011;64090;49.770;18.760;2023-08-17T08:41:03;9.70;;;7.30;;
75512;SDS011;64090;49.770;18.760;2023-08-17T08:44:11;9.10;;;6.90;;
75512;SDS011;64090;49.770;18.760;2023-08-17T08:47:32;8.20;;;7.40;;
75512;SDS011;64090;49.770;18.760;2023-08-17T08:51:07;13.40;;;7.30;;
75512;SDS011;64090;49.770;18.760;2023-08-17T08:54:41;9.60;;;7.80;;
75512;SDS011;64090;49.770;18.760;2023-08-17T08:58:31;8.30;;;7.30;;
75512;SDS011;64090;49.770;18.760;2023-08-17T09:01:43;8.60;;;7.40;;
75512;SDS011;64090;49.770;18.760;2023-08-17T09:05:08;9.40;;;8.10;;
75512;SDS011;64090;49.770;18.760;2023-08-17T09:08:27;8.30;;;7.50;;
75512;SDS011;64090;49.770;18.760;2023-08-17T09:11:45;8.10;;;7.30;;
75512;SDS011;64090;49.770;18.760;2023-08-17T09:15:03;7.70;;;6.80;;
75512;SDS011;64090;49.770;18.760;2023-08-17T09:18:12;6.00;;;4.80;;
75512;SDS011;64090;49.770;18.760;2023-08-17T09:21:40;7.20;;;5.90;;
75512;SDS011;64090;49.770;18.760;2023-08-17T09:25:03;7.00;;;6.00;;
75512;SDS011;64090;49.770;18.760;2023-08-17T09:28:27;6.20;;;5.60;;
75512;SDS011;64090;49.770;18.760;2023-08-17T09:31:40;5.90;;;5.30;;
75512;SDS011;64090;49.770;18.760;2023-08-17T09:34:56;6.90;;;6.10;;
75512;SDS011;64090;49.770;18.760;2023-08-17T09:38:17;7.00;;;6.10;;
75512;SDS011;64090;49.770;18.760;2023-08-17T09:41:23;7.70;;;6.90;;
75512;SDS011;64090;49.770;18.760;2023-08-17T09:44:37;8.30;;;5.80;;
75512;SDS011;64090;49.770;18.760;2023-08-17T09:47:59;6.50;;;5.80;;
75512;SDS011;64090;49.770;18.760;2023-08-17T09:51:34;9.00;;;7.10;;
75512;SDS011;64090;49.770;18.760;2023-08-17T09:55:00;7.90;;;7.10;;
75512;SDS011;64090;49.770;18.760;2023-08-17T09:58:26;8.20;;;6.80;;
75512;SDS011;64090;49.770;18.760;2023-08-17T10:01:48;7.50;;;6.40;;
75512;SDS011;64090;49.770;18.760;2023-08-17T10:05:06;7.00;;;6.10;;
75512;SDS011;64090;49.770;18.760;2023-08-17T10:08:17;6.70;;;6.00;;
75512;SDS011;64090;49.770;18.760;2023-08-17T10:11:49;6.40;;;5.80;;
75512;SDS011;64090;49.770;18.760;2023-08-17T10:15:12;7.10;;;6.10;;
75512;SDS011;64090;49.770;18.760;2023-08-17T10:18:42;6.80;;;6.00;;
75512;SDS011;64090;49.770;18.760;2023-08-17T10:25:53;8.00;;;6.30;;
75512;SDS011;64090;49.770;18.760;2023-08-17T10:29:13;7.90;;;6.30;;
75512;SDS011;64090;49.770;18.760;2023-08-17T10:32:22;7.20;;;6.60;;
75512;SDS011;64090;49.770;18.760;2023-08-17T10:35:50;6.50;;;5.80;;
75512;SDS011;64090;49.770;18.760;2023-08-17T10:42:35;6.60;;;5.90;;
75512;SDS011;64090;49.770;18.760;2023-08-17T10:45:37;7.10;;;6.30;;
75512;SDS011;64090;49.770;18.760;2023-08-17T10:48:42;5.60;;;5.00;;
75512;SDS011;64090;49.770;18.760;2023-08-17T10:52:02;7.10;;;6.20;;
75512;SDS011;64090;49.770;18.760;2023-08-17T10:55:15;7.80;;;7.00;;
75512;SDS011;64090;49.770;18.760;2023-08-17T10:58:44;7.20;;;6.00;;
75512;SDS011;64090;49.770;18.760;2023-08-17T11:02:07;8.80;;;6.10;;
75512;SDS011;64090;49.770;18.760;2023-08-17T11:05:33;7.60;;;6.50;;
75512;SDS011;64090;49.770;18.760;2023-08-17T11:08:55;7.80;;;5.90;;
75512;SDS011;64090;49.770;18.760;2023-08-17T11:12:25;6.90;;;4.90;;
75512;SDS011;64090;49.770;18.760;2023-08-17T11:15:42;7.60;;;4.70;;
75512;SDS011;64090;49.770;18.760;2023-08-17T11:19:06;3.90;;;3.20;;
75512;SDS011;64090;49.770;18.760;2023-08-17T11:22:27;6.30;;;3.90;;
75512;SDS011;64090;49.770;18.760;2023-08-17T11:25:49;4.70;;;3.70;;
75512;SDS011;64090;49.770;18.760;2023-08-17T11:29:09;4.60;;;3.80;;
75512;SDS011;64090;49.770;18.760;2023-08-17T11:32:31;5.50;;;3.40;;
75512;SDS011;64090;49.770;18.760;2023-08-17T11:35:57;5.10;;;3.00;;
75512;SDS011;64090;49.770;18.760;2023-08-17T11:39:18;3.10;;;2.80;;
75512;SDS011;64090;49.770;18.760;2023-08-17T11:42:37;3.50;;;2.30;;
75512;SDS011;64090;49.770;18.760;2023-08-17T11:46:01;2.60;;;2.00;;
75512;SDS011;64090;49.770;18.760;2023-08-17T11:49:20;4.90;;;2.80;;
75512;SDS011;64090;49.770;18.760;2023-08-17T11:52:49;3.50;;;2.40;;
75512;SDS011;64090;49.770;18.760;2023-08-17T11:56:09;4.50;;;2.80;;
75512;SDS011;64090;49.770;18.760;2023-08-17T11:59:34;3.10;;;2.30;;
75512;SDS011;64090;49.770;18.760;2023-08-17T12:02:59;3.50;;;2.60;;
75512;SDS011;64090;49.770;18.760;2023-08-17T12:06:20;3.40;;;2.70;;
75512;SDS011;64090;49.770;18.760;2023-08-17T12:09:56;3.30;;;2.70;;
75512;SDS011;64090;49.770;18.760;2023-08-17T12:13:20;4.90;;;3.40;;
75512;SDS011;64090;49.770;18.760;2023-08-17T12:16:45;3.80;;;2.90;;
75512;SDS011;64090;49.770;18.760;2023-08-17T12:20:01;3.80;;;2.90;;
75512;SDS011;64090;49.770;18.760;2023-08-17T12:23:23;3.70;;;2.90;;
75512;SDS011;64090;49.770;18.760;2023-08-17T12:26:49;4.00;;;2.60;;
75512;SDS011;64090;49.770;18.760;2023-08-17T12:30:12;3.30;;;2.70;;
75512;SDS011;64090;49.770;18.760;2023-08-17T12:33:51;3.80;;;3.20;;
75512;SDS011;64090;49.770;18.760;2023-08-17T12:37:02;3.50;;;2.70;;
75512;SDS011;64090;49.770;18.760;2023-08-17T12:40:23;5.90;;;3.00;;
75512;SDS011;64090;49.770;18.760;2023-08-17T12:43:41;4.10;;;2.30;;
75512;SDS011;64090;49.770;18.760;2023-08-17T12:46:53;3.80;;;2.50;;
75512;SDS011;64090;49.770;18.760;2023-08-17T12:50:15;3.70;;;2.90;;
75512;SDS011;64090;49.770;18.760;2023-08-17T12:53:45;4.10;;;2.30;;
75512;SDS011;64090;49.770;18.760;2023-08-17T12:57:03;4.80;;;2.70;;
75512;SDS011;64090;49.770;18.760;2023-08-17T13:00:23;3.70;;;2.50;;
75512;SDS011;64090;49.770;18.760;2023-08-17T13:03:35;4.00;;;3.00;;
75512;SDS011;64090;49.770;18.760;2023-08-17T13:06:54;2.70;;;2.00;;
75512;SDS011;64090;49.770;18.760;2023-08-17T13:10:15;11.70;;;9.00;;
75512;SDS011;64090;49.770;18.760;2023-08-17T13:13:32;4.40;;;3.10;;
75512;SDS011;64090;49.770;18.760;2023-08-17T13:16:50;3.70;;;3.00;;
75512;SDS011;64090;49.770;18.760;2023-08-17T13:20:09;4.50;;;2.70;;
75512;SDS011;64090;49.770;18.760;2023-08-17T13:23:30;3.30;;;2.60;;
75512;SDS011;64090;49.770;18.760;2023-08-17T13:26:56;3.40;;;2.90;;
75512;SDS011;64090;49.770;18.760;2023-08-17T13:30:20;3.50;;;2.80;;
75512;SDS011;64090;49.770;18.760;2023-08-17T13:33:39;3.70;;;2.70;;
75512;SDS011;64090;49.770;18.760;2023-08-17T13:36:54;3.60;;;2.50;;
75512;SDS011;64090;49.770;18.760;2023-08-17T13:40:16;3.90;;;2.10;;
75512;SDS011;64090;49.770;18.760;2023-08-17T13:43:37;4.00;;;2.70;;
75512;SDS011;64090;49.770;18.760;2023-08-17T13:47:02;5.00;;;3.40;;
75512;SDS011;64090;49.770;18.760;2023-08-17T13:50:16;4.60;;;2.90;;
75512;SDS011;64090;49.770;18.760;2023-08-17T13:53:33;5.00;;;3.10;;
75512;SDS011;64090;49.770;18.760;2023-08-17T13:56:48;3.50;;;2.60;;
75512;SDS011;64090;49.770;18.760;2023-08-17T14:03:21;3.80;;;2.20;;
75512;SDS011;64090;49.770;18.760;2023-08-17T14:06:39;4.00;;;2.70;;
75512;SDS011;64090;49.770;18.760;2023-08-17T14:09:57;4.60;;;3.00;;
75512;SDS011;64090;49.770;18.760;2023-08-17T14:13:34;4.50;;;3.40;;
75512;SDS011;64090;49.770;18.760;2023-08-17T14:16:51;5.40;;;3.40;;
75512;SDS011;64090;49.770;18.760;2023-08-17T14:20:04;3.70;;;2.80;;
75512;SDS011;64090;49.770;18.760;2023-08-17T14:23:20;4.00;;;2.90;;
75512;SDS011;64090;49.770;18.760;2023-08-17T14:26:47;3.70;;;2.70;;
75512;SDS011;64090;49.770;18.760;2023-08-17T14:30:05;4.10;;;2.90;;
75512;SDS011;64090;49.770;18.760;2023-08-17T14:36:45;4.20;;;2.90;;
75512;SDS011;64090;49.770;18.760;2023-08-17T14:40:06;3.00;;;2.50;;
75512;SDS011;64090;49.770;18.760;2023-08-17T14:43:30;4.20;;;2.50;;
75512;SDS011;64090;49.770;18.760;2023-08-17T14:46:50;4.40;;;2.80;;
75512;SDS011;64090;49.770;18.760;2023-08-17T14:50:09;3.80;;;2.70;;
75512;SDS011;64090;49.770;18.760;2023-08-17T14:53:22;3.60;;;2.70;;
75512;SDS011;64090;49.770;18.760;2023-08-17T14:56:43;3.20;;;2.50;;
75512;SDS011;64090;49.770;18.760;2023-08-17T14:59:59;3.90;;;3.00;;
75512;SDS011;64090;49.770;18.760;2023-08-17T15:06:30;4.70;;;3.20;;
75512;SDS011;64090;49.770;18.760;2023-08-17T15:09:48;3.90;;;3.00;;
75512;SDS011;64090;49.770;18.760;2023-08-17T15:12:57;5.20;;;2.90;;
75512;SDS011;64090;49.770;18.760;2023-08-17T15:16:17;4.80;;;3.10;;
75512;SDS011;64090;49.770;18.760;2023-08-17T15:19:39;4.50;;;3.00;;
75512;SDS011;64090;49.770;18.760;2023-08-17T15:23:01;5.80;;;3.50;;
75512;SDS011;64090;49.770;18.760;2023-08-17T15:26:22;4.20;;;3.20;;
75512;SDS011;64090;49.770;18.760;2023-08-17T15:29:43;3.70;;;2.80;;
75512;SDS011;64090;49.770;18.760;2023-08-17T15:33:08;4.10;;;2.80;;
75512;SDS011;64090;49.770;18.760;2023-08-17T15:36:25;5.70;;;3.70;;
75512;SDS011;64090;49.770;18.760;2023-08-17T15:39:37;4.90;;;3.60;;
75512;SDS011;64090;49.770;18.760;2023-08-17T15:42:58;4.00;;;2.80;;
75512;SDS011;64090;49.770;18.760;2023-08-17T15:46:29;4.80;;;3.50;;
75512;SDS011;64090;49.770;18.760;2023-08-17T15:49:48;9.00;;;7.10;;
75512;SDS011;64090;49.770;18.760;2023-08-17T15:52:58;5.10;;;3.80;;
75512;SDS011;64090;49.770;18.760;2023-08-17T15:56:20;4.90;;;4.20;;
75512;SDS011;64090;49.770;18.760;2023-08-17T15:59:42;5.60;;;3.90;;
75512;SDS011;64090;49.770;18.760;2023-08-17T16:02:52;4.40;;;3.20;;
75512;SDS011;64090;49.770;18.760;2023-08-17T16:06:16;4.60;;;3.90;;
75512;SDS011;64090;49.770;18.760;2023-08-17T16:09:38;4.90;;;4.20;;
75512;SDS011;64090;49.770;18.760;2023-08-17T16:12:59;5.90;;;4.00;;
75512;SDS011;64090;49.770;18.760;2023-08-17T16:19:37;5.00;;;3.30;;
75512;SDS011;64090;49.770;18.760;2023-08-17T16:23:02;4.80;;;3.60;;
75512;SDS011;64090;49.770;18.760;2023-08-17T16:26:09;4.30;;;3.50;;
75512;SDS011;64090;49.770;18.760;2023-08-17T16:29:47;6.30;;;4.00;;
75512;SDS011;64090;49.770;18.760;2023-08-17T16:33:12;6.20;;;4.60;;
75512;SDS011;64090;49.770;18.760;2023-08-17T16:36:36;5.80;;;4.60;;
75512;SDS011;64090;49.770;18.760;2023-08-17T16:39:55;6.20;;;4.60;;
75512;SDS011;64090;49.770;18.760;2023-08-17T16:43:11;5.20;;;4.00;;
75512;SDS011;64090;49.770;18.760;2023-08-17T16:46:33;6.30;;;4.20;;
75512;SDS011;64090;49.770;18.760;2023-08-17T16:50:02;4.70;;;3.80;;
75512;SDS011;64090;49.770;18.760;2023-08-17T16:53:26;3.80;;;3.20;;
75512;SDS011;64090;49.770;18.760;2023-08-17T16:56:53;4.50;;;3.50;;
75512;SDS011;64090;49.770;18.760;2023-08-17T17:00:10;4.90;;;3.90;;
75512;SDS011;64090;49.770;18.760;2023-08-17T17:03:20;5.50;;;4.10;;
75512;SDS011;64090;49.770;18.760;2023-08-17T17:06:43;5.40;;;4.70;;
75512;SDS011;64090;49.770;18.760;2023-08-17T17:10:00;5.50;;;4.20;;
75512;SDS011;64090;49.770;18.760;2023-08-17T17:13:14;6.50;;;4.70;;
75512;SDS011;64090;49.770;18.760;2023-08-17T17:16:39;7.70;;;4.80;;
75512;SDS011;64090;49.770;18.760;2023-08-17T17:19:58;6.40;;;3.80;;
75512;SDS011;64090;49.770;18.760;2023-08-17T17:23:21;6.60;;;4.80;;
75512;SDS011;64090;49.770;18.760;2023-08-17T17:26:44;5.90;;;3.50;;
75512;SDS011;64090;49.770;18.760;2023-08-17T17:30:05;5.50;;;4.50;;
75512;SDS011;64090;49.770;18.760;2023-08-17T17:33:31;7.30;;;4.40;;
75512;SDS011;64090;49.770;18.760;2023-08-17T17:36:58;7.00;;;4.90;;
75512;SDS011;64090;49.770;18.760;2023-08-17T17:40:08;8.20;;;4.40;;
75512;SDS011;64090;49.770;18.760;2023-08-17T17:43:28;6.70;;;4.20;;
75512;SDS011;64090;49.770;18.760;2023-08-17T17:46:50;10.80;;;8.20;;
75512;SDS011;64090;49.770;18.760;2023-08-17T17:50:15;14.30;;;9.50;;
75512;SDS011;64090;49.770;18.760;2023-08-17T17:53:37;13.30;;;11.10;;
75512;SDS011;64090;49.770;18.760;2023-08-17T17:57:18;15.10;;;12.00;;
75512;SDS011;64090;49.770;18.760;2023-08-17T18:00:42;27.20;;;8.90;;
75512;SDS011;64090;49.770;18.760;2023-08-17T18:04:07;11.60;;;7.40;;
75512;SDS011;64090;49.770;18.760;2023-08-17T18:07:25;9.90;;;6.40;;
75512;SDS011;64090;49.770;18.760;2023-08-17T18:10:47;8.50;;;6.10;;
75512;SDS011;64090;49.770;18.760;2023-08-17T18:14:26;8.50;;;6.40;;
75512;SDS011;64090;49.770;18.760;2023-08-17T18:17:57;10.40;;;5.80;;
75512;SDS011;64090;49.770;18.760;2023-08-17T18:21:18;9.70;;;5.90;;
75512;SDS011;64090;49.770;18.760;2023-08-17T18:24:40;74.40;;;9.60;;
75512;SDS011;64090;49.770;18.760;2023-08-17T18:28:04;22.80;;;6.30;;
75512;SDS011;64090;49.770;18.760;2023-08-17T18:31:26;7.80;;;5.70;;
75512;SDS011;64090;49.770;18.760;2023-08-17T18:34:48;9.30;;;7.80;;
75512;SDS011;64090;49.770;18.760;2023-08-17T18:38:08;9.90;;;7.40;;
75512;SDS011;64090;49.770;18.760;2023-08-17T18:41:30;8.70;;;6.10;;
75512;SDS011;64090;49.770;18.760;2023-08-17T18:44:58;10.00;;;6.90;;
75512;SDS011;64090;49.770;18.760;2023-08-17T18:48:36;8.90;;;6.00;;
75512;SDS011;64090;49.770;18.760;2023-08-17T18:52:06;10.30;;;8.40;;
75512;SDS011;64090;49.770;18.760;2023-08-17T18:55:29;9.50;;;7.50;;
75512;SDS011;64090;49.770;18.760;2023-08-17T18:58:52;8.90;;;6.40;;
75512;SDS011;64090;49.770;18.760;2023-08-17T19:02:22;8.30;;;5.80;;
75512;SDS011;64090;49.770;18.760;2023-08-17T19:06:04;7.30;;;5.70;;
75512;SDS011;64090;49.770;18.760;2023-08-17T19:09:26;8.70;;;6.50;;
75512;SDS011;64090;49.770;18.760;2023-08-17T19:12:46;8.80;;;7.00;;
75512;SDS011;64090;49.770;18.760;2023-08-17T19:16:10;12.70;;;8.20;;
75512;SDS011;64090;49.770;18.760;2023-08-17T19:19:32;11.60;;;7.40;;
75512;SDS011;64090;49.770;18.760;2023-08-17T19:22:55;10.10;;;7.60;;
75512;SDS011;64090;49.770;18.760;2023-08-17T19:26:21;9.70;;;7.00;;
75512;SDS011;64090;49.770;18.760;2023-08-17T19:29:59;11.90;;;8.10;;
75512;SDS011;64090;49.770;18.760;2023-08-17T19:33:22;13.60;;;7.70;;
75512;SDS011;64090;49.770;18.760;2023-08-17T19:36:49;13.90;;;8.20;;
75512;SDS011;64090;49.770;18.760;2023-08-17T19:40:11;13.10;;;8.20;;
75512;SDS011;64090;49.770;18.760;2023-08-17T19:43:54;10.00;;;6.60;;
75512;SDS011;64090;49.770;18.760;2023-08-17T19:47:16;11.30;;;7.60;;
75512;SDS011;64090;49.770;18.760;2023-08-17T19:54:12;8.10;;;5.90;;
75512;SDS011;64090;49.770;18.760;2023-08-17T19:57:38;9.90;;;6.10;;
75512;SDS011;64090;49.770;18.760;2023-08-17T20:01:05;7.60;;;5.70;;
75512;SDS011;64090;49.770;18.760;2023-08-17T20:04:27;8.60;;;6.40;;
75512;SDS011;64090;49.770;18.760;2023-08-17T20:07:50;11.20;;;7.90;;
75512;SDS011;64090;49.770;18.760;2023-08-17T20:11:15;9.20;;;5.70;;
75512;SDS011;64090;49.770;18.760;2023-08-17T20:14:37;9.00;;;5.90;;
75512;SDS011;64090;49.770;18.760;2023-08-17T20:18:26;10.80;;;6.50;;
75512;SDS011;64090;49.770;18.760;2023-08-17T20:21:55;8.20;;;5.80;;
75512;SDS011;64090;49.770;18.760;2023-08-17T20:25:45;9.00;;;5.70;;